Pagrindinis puslapis
METAR-TAF:

METAR-TAF

Oro uostai :

Beirutas, Libanas

platuma: 33-49N, ilguma: 035-29E, Aukštis: 29 m

Dabartinis oras

Ataskaita buvo paskelbta 1 valandą ir 10 minutes, ne 07:00 UTC
Vėjas 11 kt iš Pietų/Pietvakarių
Temperatūra 29°C
Drėgmė 62%
Slėgis 1005 hPa
Matomumas: 8000 m
Mažai debesys ne aukštis 2300 ft

METAR: OLBA 230700Z 21011KT 8000 FEW023 29/21 Q1005 NOSIG

Laikas: 11:10 (08:10 UTC)

Prognozė

Ataskaita buvo paskelbta 4 valandos ir 10 minutes, ne 04:00 UTC
Prognozė galioja nuo 23 metu 06 UTC su 24 metu 12 UTC
Vėjas 13 kt iš Pietvakarių
Matomumas: 8000 m
Išsisklaidę debesys ne aukštis 2600 ft
Tikimybė 30% :
Laikinai
nuo 23 metu 06 UTC su 24 metu 06 UTC
Matomumas: 5000 m
rūkana
Tapsmas
nuo 23 metu 18 UTC su 23 metu 20 UTC
Vėjas 4 kt iš Pietų/Pietryčių
Su prošvaistėmis ne aukštis 2600 ft
Tapsmas
nuo 24 metu 06 UTC su 24 metu 08 UTC
Vėjas 16 kt iš Pietvakarių
Išsisklaidę debesys ne aukštis 3000 ft

TAF: OLBA 230400Z 2306/2412 22013KT 8000 SCT026 PROB30 TEMPO 2306/2406 5000 BR BECMG 2318/2320 15004KT BKN026 BECMG 2406/2408 23016KT SCT030

Orai ataskaitas ir orų prognozės (METAR, TAF).

turimą stotys yra geltonos ir raudonos taškus žemėlapyje.

Perkelti pele per norėdami pamatyti stoties vardą.

Tada spustelėkite, norėdami matyti oro stebėjimo ir prognozės.

Norėdami pakeisti žemėlapį: spustelėkite ant žalios mygtukų su juodo kryžiaus žemyn,; žalią mygtuką su brūkšneliu, jei norite nutolinti; arba žalių rodyklių gretimoms žemėlapius.


METAR-TAF: